sensor_id;sensor_type;location;lat;lon;timestamp;P1;durP1;ratioP1;P2;durP2;ratioP2
10667;SDS011;5382;42.136;24.796;2023-03-01T00:01:00;2.30;;;1.70;;
10667;SDS011;5382;42.136;24.796;2023-03-01T00:03:29;2.17;;;2.00;;
10667;SDS011;5382;42.136;24.796;2023-03-01T00:05:56;2.10;;;1.90;;
10667;SDS011;5382;42.136;24.796;2023-03-01T00:08:24;3.67;;;2.10;;
10667;SDS011;5382;42.136;24.796;2023-03-01T00:10:59;2.80;;;2.20;;
10667;SDS011;5382;42.136;24.796;2023-03-01T00:13:27;1.65;;;1.55;;
10667;SDS011;5382;42.136;24.796;2023-03-01T00:15:54;2.10;;;1.90;;
10667;SDS011;5382;42.136;24.796;2023-03-01T00:18:20;2.47;;;2.28;;
10667;SDS011;5382;42.136;24.796;2023-03-01T00:20:50;2.28;;;2.08;;
10667;SDS011;5382;42.136;24.796;2023-03-01T00:23:17;2.38;;;2.17;;
10667;SDS011;5382;42.136;24.796;2023-03-01T00:25:44;2.45;;;2.25;;
10667;SDS011;5382;42.136;24.796;2023-03-01T00:28:11;3.10;;;2.88;;
10667;SDS011;5382;42.136;24.796;2023-03-01T00:30:38;2.72;;;2.53;;
10667;SDS011;5382;42.136;24.796;2023-03-01T00:33:05;2.72;;;2.47;;
10667;SDS011;5382;42.136;24.796;2023-03-01T00:35:32;2.83;;;2.30;;
10667;SDS011;5382;42.136;24.796;2023-03-01T00:38:00;2.80;;;2.50;;
10667;SDS011;5382;42.136;24.796;2023-03-01T00:40:29;2.72;;;2.53;;
10667;SDS011;5382;42.136;24.796;2023-03-01T00:42:58;3.50;;;2.58;;
10667;SDS011;5382;42.136;24.796;2023-03-01T00:45:26;3.08;;;2.78;;
10667;SDS011;5382;42.136;24.796;2023-03-01T00:47:53;3.00;;;2.55;;
10667;SDS011;5382;42.136;24.796;2023-03-01T00:50:20;2.85;;;2.65;;
10667;SDS011;5382;42.136;24.796;2023-03-01T00:52:51;3.70;;;2.58;;
10667;SDS011;5382;42.136;24.796;2023-03-01T00:55:20;8.30;;;3.03;;
10667;SDS011;5382;42.136;24.796;2023-03-01T00:57:47;2.17;;;1.98;;
10667;SDS011;5382;42.136;24.796;2023-03-01T01:00:14;2.72;;;2.50;;
10667;SDS011;5382;42.136;24.796;2023-03-01T01:02:41;2.53;;;2.33;;
10667;SDS011;5382;42.136;24.796;2023-03-01T01:05:08;3.60;;;2.40;;
10667;SDS011;5382;42.136;24.796;2023-03-01T01:07:35;2.45;;;2.05;;
10667;SDS011;5382;42.136;24.796;2023-03-01T01:10:02;2.95;;;2.42;;
10667;SDS011;5382;42.136;24.796;2023-03-01T01:12:31;3.00;;;2.50;;
10667;SDS011;5382;42.136;24.796;2023-03-01T01:14:58;2.28;;;1.85;;
10667;SDS011;5382;42.136;24.796;2023-03-01T01:17:25;3.25;;;1.92;;
10667;SDS011;5382;42.136;24.796;2023-03-01T01:19:52;2.20;;;2.00;;
10667;SDS011;5382;42.136;24.796;2023-03-01T01:22:19;2.45;;;2.25;;
10667;SDS011;5382;42.136;24.796;2023-03-01T01:24:46;2.65;;;2.08;;
10667;SDS011;5382;42.136;24.796;2023-03-01T01:27:12;3.28;;;2.55;;
10667;SDS011;5382;42.136;24.796;2023-03-01T01:29:41;2.00;;;1.80;;
10667;SDS011;5382;42.136;24.796;2023-03-01T01:32:08;2.55;;;2.08;;
10667;SDS011;5382;42.136;24.796;2023-03-01T01:34:35;2.20;;;1.95;;
10667;SDS011;5382;42.136;24.796;2023-03-01T01:37:01;2.50;;;2.30;;
10667;SDS011;5382;42.136;24.796;2023-03-01T01:39:29;2.20;;;1.98;;
10667;SDS011;5382;42.136;24.796;2023-03-01T01:41:56;2.03;;;1.85;;
10667;SDS011;5382;42.136;24.796;2023-03-01T01:44:24;2.17;;;1.98;;
10667;SDS011;5382;42.136;24.796;2023-03-01T01:46:54;1.90;;;1.70;;
10667;SDS011;5382;42.136;24.796;2023-03-01T01:49:24;1.75;;;1.65;;
10667;SDS011;5382;42.136;24.796;2023-03-01T01:51:56;2.30;;;1.90;;
10667;SDS011;5382;42.136;24.796;2023-03-01T01:54:30;2.00;;;1.85;;
10667;SDS011;5382;42.136;24.796;2023-03-01T01:57:03;2.35;;;2.00;;
10667;SDS011;5382;42.136;24.796;2023-03-01T01:59:38;2.35;;;2.15;;
10667;SDS011;5382;42.136;24.796;2023-03-01T02:02:08;2.65;;;2.28;;
10667;SDS011;5382;42.136;24.796;2023-03-01T02:04:35;2.70;;;2.42;;
10667;SDS011;5382;42.136;24.796;2023-03-01T02:07:03;2.42;;;2.10;;
10667;SDS011;5382;42.136;24.796;2023-03-01T02:09:35;2.53;;;2.25;;
10667;SDS011;5382;42.136;24.796;2023-03-01T02:12:02;4.10;;;2.80;;
10667;SDS011;5382;42.136;24.796;2023-03-01T02:14:30;3.55;;;2.90;;
10667;SDS011;5382;42.136;24.796;2023-03-01T02:16:57;4.65;;;2.40;;
10667;SDS011;5382;42.136;24.796;2023-03-01T02:19:30;3.00;;;2.70;;
10667;SDS011;5382;42.136;24.796;2023-03-01T02:22:10;2.60;;;2.40;;
10667;SDS011;5382;42.136;24.796;2023-03-01T02:24:46;4.60;;;2.53;;
10667;SDS011;5382;42.136;24.796;2023-03-01T02:27:26;2.35;;;2.08;;
10667;SDS011;5382;42.136;24.796;2023-03-01T02:30:00;2.40;;;2.20;;
10667;SDS011;5382;42.136;24.796;2023-03-01T02:32:27;2.63;;;2.42;;
10667;SDS011;5382;42.136;24.796;2023-03-01T02:34:55;3.78;;;2.60;;
10667;SDS011;5382;42.136;24.796;2023-03-01T02:37:22;2.28;;;2.08;;
10667;SDS011;5382;42.136;24.796;2023-03-01T02:39:53;4.53;;;2.80;;
10667;SDS011;5382;42.136;24.796;2023-03-01T02:42:26;2.38;;;1.92;;
10667;SDS011;5382;42.136;24.796;2023-03-01T02:44:56;2.08;;;1.98;;
10667;SDS011;5382;42.136;24.796;2023-03-01T02:47:25;2.60;;;2.40;;
10667;SDS011;5382;42.136;24.796;2023-03-01T02:49:51;2.20;;;2.05;;
10667;SDS011;5382;42.136;24.796;2023-03-01T02:52:23;2.70;;;2.13;;
10667;SDS011;5382;42.136;24.796;2023-03-01T02:55:01;2.15;;;1.95;;
10667;SDS011;5382;42.136;24.796;2023-03-01T02:57:31;2.35;;;2.15;;
10667;SDS011;5382;42.136;24.796;2023-03-01T03:00:02;1.70;;;1.60;;
10667;SDS011;5382;42.136;24.796;2023-03-01T03:02:34;2.67;;;2.22;;
10667;SDS011;5382;42.136;24.796;2023-03-01T03:05:03;1.98;;;1.88;;
10667;SDS011;5382;42.136;24.796;2023-03-01T03:07:33;2.15;;;1.95;;
10667;SDS011;5382;42.136;24.796;2023-03-01T03:10:02;2.83;;;2.35;;
10667;SDS011;5382;42.136;24.796;2023-03-01T03:12:29;2.55;;;2.15;;
10667;SDS011;5382;42.136;24.796;2023-03-01T03:14:56;2.30;;;2.10;;
10667;SDS011;5382;42.136;24.796;2023-03-01T03:17:23;2.80;;;2.45;;
10667;SDS011;5382;42.136;24.796;2023-03-01T03:19:51;2.53;;;2.33;;
10667;SDS011;5382;42.136;24.796;2023-03-01T03:22:18;3.63;;;2.35;;
10667;SDS011;5382;42.136;24.796;2023-03-01T03:24:45;2.78;;;2.40;;
10667;SDS011;5382;42.136;24.796;2023-03-01T03:27:12;2.75;;;2.33;;
10667;SDS011;5382;42.136;24.796;2023-03-01T03:29:39;3.00;;;2.70;;
10667;SDS011;5382;42.136;24.796;2023-03-01T03:32:05;3.10;;;2.80;;
10667;SDS011;5382;42.136;24.796;2023-03-01T03:34:32;3.97;;;3.00;;
10667;SDS011;5382;42.136;24.796;2023-03-01T03:37:00;4.03;;;2.97;;
10667;SDS011;5382;42.136;24.796;2023-03-01T03:39:27;2.83;;;2.53;;
10667;SDS011;5382;42.136;24.796;2023-03-01T03:42:00;3.05;;;2.70;;
10667;SDS011;5382;42.136;24.796;2023-03-01T03:44:27;3.45;;;2.63;;
10667;SDS011;5382;42.136;24.796;2023-03-01T03:46:54;3.65;;;2.92;;
10667;SDS011;5382;42.136;24.796;2023-03-01T03:49:20;2.65;;;2.45;;
10667;SDS011;5382;42.136;24.796;2023-03-01T03:51:47;2.85;;;2.22;;
10667;SDS011;5382;42.136;24.796;2023-03-01T03:54:15;2.20;;;2.00;;
10667;SDS011;5382;42.136;24.796;2023-03-01T03:56:42;2.50;;;2.30;;
10667;SDS011;5382;42.136;24.796;2023-03-01T03:59:09;2.90;;;2.50;;
10667;SDS011;5382;42.136;24.796;2023-03-01T04:01:36;3.40;;;2.28;;
10667;SDS011;5382;42.136;24.796;2023-03-01T04:04:03;2.50;;;2.30;;
10667;SDS011;5382;42.136;24.796;2023-03-01T04:06:32;2.47;;;2.17;;
10667;SDS011;5382;42.136;24.796;2023-03-01T04:08:59;4.30;;;3.15;;
10667;SDS011;5382;42.136;24.796;2023-03-01T04:11:29;2.10;;;1.83;;
10667;SDS011;5382;42.136;24.796;2023-03-01T04:13:57;2.85;;;2.53;;
10667;SDS011;5382;42.136;24.796;2023-03-01T04:16:25;2.33;;;2.10;;
10667;SDS011;5382;42.136;24.796;2023-03-01T04:18:52;2.53;;;2.33;;
10667;SDS011;5382;42.136;24.796;2023-03-01T04:21:24;4.50;;;2.80;;
10667;SDS011;5382;42.136;24.796;2023-03-01T04:23:51;2.75;;;2.33;;
10667;SDS011;5382;42.136;24.796;2023-03-01T04:26:18;6.45;;;3.00;;
10667;SDS011;5382;42.136;24.796;2023-03-01T04:28:47;2.92;;;2.47;;
10667;SDS011;5382;42.136;24.796;2023-03-01T04:31:16;3.05;;;2.58;;
10667;SDS011;5382;42.136;24.796;2023-03-01T04:33:46;3.55;;;2.92;;
10667;SDS011;5382;42.136;24.796;2023-03-01T04:36:16;3.55;;;2.70;;
10667;SDS011;5382;42.136;24.796;2023-03-01T04:38:44;4.63;;;3.25;;
10667;SDS011;5382;42.136;24.796;2023-03-01T04:41:12;3.88;;;2.80;;
10667;SDS011;5382;42.136;24.796;2023-03-01T04:43:40;2.47;;;2.25;;
10667;SDS011;5382;42.136;24.796;2023-03-01T04:46:08;5.25;;;2.80;;
10667;SDS011;5382;42.136;24.796;2023-03-01T04:48:39;3.95;;;2.45;;
10667;SDS011;5382;42.136;24.796;2023-03-01T04:51:07;3.47;;;2.80;;
10667;SDS011;5382;42.136;24.796;2023-03-01T04:53:34;4.30;;;3.40;;
10667;SDS011;5382;42.136;24.796;2023-03-01T04:56:03;4.35;;;2.45;;
10667;SDS011;5382;42.136;24.796;2023-03-01T04:58:31;3.47;;;2.85;;
10667;SDS011;5382;42.136;24.796;2023-03-01T05:00:58;2.65;;;2.45;;
10667;SDS011;5382;42.136;24.796;2023-03-01T05:03:26;3.38;;;2.80;;
10667;SDS011;5382;42.136;24.796;2023-03-01T05:05:53;3.25;;;2.95;;
10667;SDS011;5382;42.136;24.796;2023-03-01T05:08:24;4.78;;;3.05;;
10667;SDS011;5382;42.136;24.796;2023-03-01T05:10:52;4.47;;;3.60;;
10667;SDS011;5382;42.136;24.796;2023-03-01T05:13:20;3.38;;;2.70;;
10667;SDS011;5382;42.136;24.796;2023-03-01T05:15:47;3.30;;;3.00;;
10667;SDS011;5382;42.136;24.796;2023-03-01T05:18:19;4.15;;;2.40;;
10667;SDS011;5382;42.136;24.796;2023-03-01T05:20:47;2.58;;;2.38;;
10667;SDS011;5382;42.136;24.796;2023-03-01T05:23:14;3.97;;;3.10;;
10667;SDS011;5382;42.136;24.796;2023-03-01T05:25:41;3.28;;;2.97;;
10667;SDS011;5382;42.136;24.796;2023-03-01T05:28:09;2.70;;;2.50;;
10667;SDS011;5382;42.136;24.796;2023-03-01T05:30:37;3.38;;;3.05;;
10667;SDS011;5382;42.136;24.796;2023-03-01T05:33:05;4.45;;;3.67;;
10667;SDS011;5382;42.136;24.796;2023-03-01T05:35:38;3.67;;;3.38;;
10667;SDS011;5382;42.136;24.796;2023-03-01T05:38:08;3.28;;;2.97;;
10667;SDS011;5382;42.136;24.796;2023-03-01T05:40:38;3.83;;;2.88;;
10667;SDS011;5382;42.136;24.796;2023-03-01T05:43:05;3.50;;;3.20;;
10667;SDS011;5382;42.136;24.796;2023-03-01T05:45:32;5.63;;;4.53;;
10667;SDS011;5382;42.136;24.796;2023-03-01T05:47:59;4.07;;;3.60;;
10667;SDS011;5382;42.136;24.796;2023-03-01T05:50:27;6.45;;;2.95;;
10667;SDS011;5382;42.136;24.796;2023-03-01T05:52:58;4.80;;;3.60;;
10667;SDS011;5382;42.136;24.796;2023-03-01T05:55:28;7.20;;;3.78;;
10667;SDS011;5382;42.136;24.796;2023-03-01T05:57:57;3.85;;;3.17;;
10667;SDS011;5382;42.136;24.796;2023-03-01T06:00:26;4.05;;;3.50;;
10667;SDS011;5382;42.136;24.796;2023-03-01T06:02:54;3.97;;;3.58;;
10667;SDS011;5382;42.136;24.796;2023-03-01T06:05:22;5.50;;;3.70;;
10667;SDS011;5382;42.136;24.796;2023-03-01T06:07:50;6.43;;;3.58;;
10667;SDS011;5382;42.136;24.796;2023-03-01T06:10:19;5.57;;;3.92;;
10667;SDS011;5382;42.136;24.796;2023-03-01T06:12:48;3.20;;;2.90;;
10667;SDS011;5382;42.136;24.796;2023-03-01T06:15:15;3.97;;;3.17;;
10667;SDS011;5382;42.136;24.796;2023-03-01T06:17:43;6.18;;;5.68;;
10667;SDS011;5382;42.136;24.796;2023-03-01T06:20:12;3.42;;;3.05;;
10667;SDS011;5382;42.136;24.796;2023-03-01T06:22:41;3.85;;;3.35;;
10667;SDS011;5382;42.136;24.796;2023-03-01T06:25:09;4.55;;;3.38;;
10667;SDS011;5382;42.136;24.796;2023-03-01T06:27:37;3.08;;;2.80;;
10667;SDS011;5382;42.136;24.796;2023-03-01T06:30:06;3.67;;;2.85;;
10667;SDS011;5382;42.136;24.796;2023-03-01T06:32:39;2.75;;;2.53;;
10667;SDS011;5382;42.136;24.796;2023-03-01T06:35:07;2.35;;;2.15;;
10667;SDS011;5382;42.136;24.796;2023-03-01T06:37:34;2.35;;;2.15;;
10667;SDS011;5382;42.136;24.796;2023-03-01T06:40:01;2.40;;;2.20;;
10667;SDS011;5382;42.136;24.796;2023-03-01T06:42:33;2.15;;;1.42;;
10667;SDS011;5382;42.136;24.796;2023-03-01T06:45:00;3.47;;;1.83;;
10667;SDS011;5382;42.136;24.796;2023-03-01T06:47:28;1.60;;;1.50;;
10667;SDS011;5382;42.136;24.796;2023-03-01T06:49:55;2.00;;;1.60;;
10667;SDS011;5382;42.136;24.796;2023-03-01T06:52:22;1.80;;;1.70;;
10667;SDS011;5382;42.136;24.796;2023-03-01T06:54:48;2.10;;;1.73;;
10667;SDS011;5382;42.136;24.796;2023-03-01T06:57:15;1.60;;;1.50;;
10667;SDS011;5382;42.136;24.796;2023-03-01T06:59:42;3.50;;;1.80;;
10667;SDS011;5382;42.136;24.796;2023-03-01T07:02:10;1.90;;;1.80;;
10667;SDS011;5382;42.136;24.796;2023-03-01T07:04:39;4.65;;;1.85;;
10667;SDS011;5382;42.136;24.796;2023-03-01T07:07:06;1.80;;;1.70;;
10667;SDS011;5382;42.136;24.796;2023-03-01T07:09:32;2.60;;;2.15;;
10667;SDS011;5382;42.136;24.796;2023-03-01T07:11:59;2.10;;;1.90;;
10667;SDS011;5382;42.136;24.796;2023-03-01T07:14:27;1.65;;;1.55;;
10667;SDS011;5382;42.136;24.796;2023-03-01T07:16:54;2.35;;;1.77;;
10667;SDS011;5382;42.136;24.796;2023-03-01T07:19:21;4.20;;;1.80;;
10667;SDS011;5382;42.136;24.796;2023-03-01T07:21:50;1.45;;;1.23;;
10667;SDS011;5382;42.136;24.796;2023-03-01T07:24:16;1.67;;;1.42;;
10667;SDS011;5382;42.136;24.796;2023-03-01T07:26:43;1.80;;;1.50;;
10667;SDS011;5382;42.136;24.796;2023-03-01T07:29:10;1.75;;;1.65;;
10667;SDS011;5382;42.136;24.796;2023-03-01T07:31:37;2.42;;;1.98;;
10667;SDS011;5382;42.136;24.796;2023-03-01T07:34:03;4.30;;;2.42;;
10667;SDS011;5382;42.136;24.796;2023-03-01T07:36:30;2.33;;;2.13;;
10667;SDS011;5382;42.136;24.796;2023-03-01T07:38:59;2.58;;;2.17;;
10667;SDS011;5382;42.136;24.796;2023-03-01T07:41:27;2.67;;;2.20;;
10667;SDS011;5382;42.136;24.796;2023-03-01T07:43:54;2.75;;;2.20;;
10667;SDS011;5382;42.136;24.796;2023-03-01T07:46:21;2.92;;;2.00;;
10667;SDS011;5382;42.136;24.796;2023-03-01T07:48:48;2.70;;;1.70;;
10667;SDS011;5382;42.136;24.796;2023-03-01T07:51:15;3.65;;;2.13;;
10667;SDS011;5382;42.136;24.796;2023-03-01T07:53:41;2.42;;;2.22;;
10667;SDS011;5382;42.136;24.796;2023-03-01T07:56:10;1.60;;;1.50;;
10667;SDS011;5382;42.136;24.796;2023-03-01T07:58:39;1.50;;;1.35;;
10667;SDS011;5382;42.136;24.796;2023-03-01T08:01:08;1.50;;;1.40;;
10667;SDS011;5382;42.136;24.796;2023-03-01T08:03:41;1.23;;;1.13;;
10667;SDS011;5382;42.136;24.796;2023-03-01T08:06:11;3.13;;;1.23;;
10667;SDS011;5382;42.136;24.796;2023-03-01T08:08:38;1.73;;;1.60;;
10667;SDS011;5382;42.136;24.796;2023-03-01T08:11:06;1.50;;;1.40;;
10667;SDS011;5382;42.136;24.796;2023-03-01T08:13:35;1.48;;;1.38;;
10667;SDS011;5382;42.136;24.796;2023-03-01T08:16:03;1.67;;;1.55;;
10667;SDS011;5382;42.136;24.796;2023-03-01T08:18:30;1.63;;;1.52;;
10667;SDS011;5382;42.136;24.796;2023-03-01T08:21:01;2.05;;;1.60;;
10667;SDS011;5382;42.136;24.796;2023-03-01T08:23:28;1.45;;;1.35;;
10667;SDS011;5382;42.136;24.796;2023-03-01T08:26:03;1.30;;;1.20;;
10667;SDS011;5382;42.136;24.796;2023-03-01T08:28:31;1.17;;;1.10;;
10667;SDS011;5382;42.136;24.796;2023-03-01T08:30:59;1.58;;;1.33;;
10667;SDS011;5382;42.136;24.796;2023-03-01T08:33:26;1.30;;;1.20;;
10667;SDS011;5382;42.136;24.796;2023-03-01T08:35:52;1.77;;;1.08;;
10667;SDS011;5382;42.136;24.796;2023-03-01T08:38:27;1.17;;;1.08;;
10667;SDS011;5382;42.136;24.796;2023-03-01T08:40:54;1.80;;;1.13;;
10667;SDS011;5382;42.136;24.796;2023-03-01T08:43:21;1.90;;;1.48;;
10667;SDS011;5382;42.136;24.796;2023-03-01T08:45:49;1.65;;;1.30;;
10667;SDS011;5382;42.136;24.796;2023-03-01T08:48:18;1.00;;;0.90;;
10667;SDS011;5382;42.136;24.796;2023-03-01T08:50:46;1.10;;;0.90;;
10667;SDS011;5382;42.136;24.796;2023-03-01T08:53:12;1.38;;;1.27;;
10667;SDS011;5382;42.136;24.796;2023-03-01T08:55:39;2.00;;;0.95;;
10667;SDS011;5382;42.136;24.796;2023-03-01T08:58:06;1.30;;;1.20;;
10667;SDS011;5382;42.136;24.796;2023-03-01T09:00:33;2.70;;;0.90;;
10667;SDS011;5382;42.136;24.796;2023-03-01T09:03:00;2.80;;;1.25;;
10667;SDS011;5382;42.136;24.796;2023-03-01T09:05:28;2.50;;;1.08;;
10667;SDS011;5382;42.136;24.796;2023-03-01T09:07:57;1.88;;;1.15;;
10667;SDS011;5382;42.136;24.796;2023-03-01T09:10:25;2.17;;;1.05;;
10667;SDS011;5382;42.136;24.796;2023-03-01T09:12:52;1.92;;;1.30;;
10667;SDS011;5382;42.136;24.796;2023-03-01T09:15:19;1.65;;;1.17;;
10667;SDS011;5382;42.136;24.796;2023-03-01T09:17:46;2.85;;;0.95;;
10667;SDS011;5382;42.136;24.796;2023-03-01T09:20:13;1.20;;;1.10;;
10667;SDS011;5382;42.136;24.796;2023-03-01T09:22:42;0.85;;;0.85;;
10667;SDS011;5382;42.136;24.796;2023-03-01T09:25:09;1.40;;;1.30;;
10667;SDS011;5382;42.136;24.796;2023-03-01T09:27:36;2.17;;;1.75;;
10667;SDS011;5382;42.136;24.796;2023-03-01T09:30:03;0.98;;;0.98;;
10667;SDS011;5382;42.136;24.796;2023-03-01T09:32:31;1.40;;;1.17;;
10667;SDS011;5382;42.136;24.796;2023-03-01T09:34:58;1.67;;;1.40;;
10667;SDS011;5382;42.136;24.796;2023-03-01T09:37:29;2.05;;;1.40;;
10667;SDS011;5382;42.136;24.796;2023-03-01T09:39:59;2.80;;;2.08;;
10667;SDS011;5382;42.136;24.796;2023-03-01T09:42:26;1.20;;;1.10;;
10667;SDS011;5382;42.136;24.796;2023-03-01T09:44:57;1.48;;;1.38;;
10667;SDS011;5382;42.136;24.796;2023-03-01T09:47:29;1.45;;;1.30;;
10667;SDS011;5382;42.136;24.796;2023-03-01T09:49:58;1.50;;;1.40;;
10667;SDS011;5382;42.136;24.796;2023-03-01T09:52:33;2.08;;;1.60;;
10667;SDS011;5382;42.136;24.796;2023-03-01T09:55:10;1.55;;;1.45;;
10667;SDS011;5382;42.136;24.796;2023-03-01T09:57:41;1.38;;;1.23;;
10667;SDS011;5382;42.136;24.796;2023-03-01T10:00:23;2.78;;;1.58;;
10667;SDS011;5382;42.136;24.796;2023-03-01T10:03:01;1.40;;;1.30;;
10667;SDS011;5382;42.136;24.796;2023-03-01T10:05:38;1.75;;;1.20;;
10667;SDS011;5382;42.136;24.796;2023-03-01T10:08:30;1.23;;;1.10;;
10667;SDS011;5382;42.136;24.796;2023-03-01T10:11:03;2.17;;;1.48;;
10667;SDS011;5382;42.136;24.796;2023-03-01T10:13:33;1.25;;;1.13;;
10667;SDS011;5382;42.136;24.796;2023-03-01T10:16:10;2.40;;;1.40;;
10667;SDS011;5382;42.136;24.796;2023-03-01T10:18:41;3.47;;;1.70;;
10667;SDS011;5382;42.136;24.796;2023-03-01T10:21:14;1.70;;;1.60;;
10667;SDS011;5382;42.136;24.796;2023-03-01T10:23:43;2.60;;;1.45;;
10667;SDS011;5382;42.136;24.796;2023-03-01T10:26:15;1.35;;;1.23;;
10667;SDS011;5382;42.136;24.796;2023-03-01T10:28:54;0.93;;;0.93;;
10667;SDS011;5382;42.136;24.796;2023-03-01T10:31:31;1.45;;;1.10;;
10667;SDS011;5382;42.136;24.796;2023-03-01T10:34:09;2.28;;;1.30;;
10667;SDS011;5382;42.136;24.796;2023-03-01T10:36:39;3.35;;;1.45;;
10667;SDS011;5382;42.136;24.796;2023-03-01T10:39:11;1.05;;;0.90;;
10667;SDS011;5382;42.136;24.796;2023-03-01T10:41:58;0.98;;;0.93;;
10667;SDS011;5382;42.136;24.796;2023-03-01T10:44:36;3.42;;;1.13;;
10667;SDS011;5382;42.136;24.796;2023-03-01T10:47:11;3.70;;;1.58;;
10667;SDS011;5382;42.136;24.796;2023-03-01T10:52:43;1.45;;;1.25;;
10667;SDS011;5382;42.136;24.796;2023-03-01T10:55:24;1.35;;;1.23;;
10667;SDS011;5382;42.136;24.796;2023-03-01T10:58:07;3.83;;;1.20;;
10667;SDS011;5382;42.136;24.796;2023-03-01T11:00:45;2.05;;;1.13;;
10667;SDS011;5382;42.136;24.796;2023-03-01T11:03:13;1.40;;;1.30;;
10667;SDS011;5382;42.136;24.796;2023-03-01T11:05:57;3.00;;;1.13;;
10667;SDS011;5382;42.136;24.796;2023-03-01T11:08:33;0.85;;;0.85;;
10667;SDS011;5382;42.136;24.796;2023-03-01T11:11:17;1.15;;;0.98;;
10667;SDS011;5382;42.136;24.796;2023-03-01T11:13:51;1.05;;;0.95;;
10667;SDS011;5382;42.136;24.796;2023-03-01T11:16:24;0.88;;;0.82;;
10667;SDS011;5382;42.136;24.796;2023-03-01T11:18:56;1.25;;;1.15;;
10667;SDS011;5382;42.136;24.796;2023-03-01T11:21:25;0.88;;;0.85;;
10667;SDS011;5382;42.136;24.796;2023-03-01T11:23:55;1.98;;;1.35;;
10667;SDS011;5382;42.136;24.796;2023-03-01T11:26:24;1.27;;;1.17;;
10667;SDS011;5382;42.136;24.796;2023-03-01T11:28:53;1.50;;;1.30;;
10667;SDS011;5382;42.136;24.796;2023-03-01T11:31:25;3.05;;;1.10;;
10667;SDS011;5382;42.136;24.796;2023-03-01T11:33:55;0.90;;;0.90;;
10667;SDS011;5382;42.136;24.796;2023-03-01T11:36:28;1.95;;;1.02;;
10667;SDS011;5382;42.136;24.796;2023-03-01T11:39:01;2.25;;;1.33;;
10667;SDS011;5382;42.136;24.796;2023-03-01T11:41:32;1.00;;;0.90;;
10667;SDS011;5382;42.136;24.796;2023-03-01T11:44:03;1.52;;;1.00;;
10667;SDS011;5382;42.136;24.796;2023-03-01T11:46:47;1.50;;;1.23;;
10667;SDS011;5382;42.136;24.796;2023-03-01T11:49:33;1.40;;;1.23;;
10667;SDS011;5382;42.136;24.796;2023-03-01T11:52:15;1.17;;;1.08;;
10667;SDS011;5382;42.136;24.796;2023-03-01T11:54:55;3.38;;;1.27;;
10667;SDS011;5382;42.136;24.796;2023-03-01T11:57:41;1.33;;;1.23;;
10667;SDS011;5382;42.136;24.796;2023-03-01T12:03:39;1.85;;;1.15;;
10667;SDS011;5382;42.136;24.796;2023-03-01T12:06:20;2.83;;;1.35;;
10667;SDS011;5382;42.136;24.796;2023-03-01T12:08:56;1.73;;;1.55;;
10667;SDS011;5382;42.136;24.796;2023-03-01T12:11:50;1.00;;;1.00;;
10667;SDS011;5382;42.136;24.796;2023-03-01T12:14:40;1.33;;;1.23;;
10667;SDS011;5382;42.136;24.796;2023-03-01T12:17:21;1.60;;;1.40;;
10667;SDS011;5382;42.136;24.796;2023-03-01T12:20:05;1.45;;;1.20;;
10667;SDS011;5382;42.136;24.796;2023-03-01T12:22:52;2.45;;;1.27;;
10667;SDS011;5382;42.136;24.796;2023-03-01T12:25:31;2.55;;;1.10;;
10667;SDS011;5382;42.136;24.796;2023-03-01T12:28:13;3.10;;;1.40;;
10667;SDS011;5382;42.136;24.796;2023-03-01T12:33:49;1.55;;;1.33;;
10667;SDS011;5382;42.136;24.796;2023-03-01T12:39:26;3.38;;;1.30;;
10667;SDS011;5382;42.136;24.796;2023-03-01T12:42:08;1.48;;;1.38;;
10667;SDS011;5382;42.136;24.796;2023-03-01T12:44:48;1.15;;;1.10;;
10667;SDS011;5382;42.136;24.796;2023-03-01T12:47:31;1.63;;;1.30;;
10667;SDS011;5382;42.136;24.796;2023-03-01T12:50:17;1.77;;;1.20;;
10667;SDS011;5382;42.136;24.796;2023-03-01T12:52:47;2.72;;;1.65;;
10667;SDS011;5382;42.136;24.796;2023-03-01T12:55:22;1.50;;;1.40;;
10667;SDS011;5382;42.136;24.796;2023-03-01T12:57:56;2.03;;;1.35;;
10667;SDS011;5382;42.136;24.796;2023-03-01T13:00:35;1.55;;;1.00;;
10667;SDS011;5382;42.136;24.796;2023-03-01T13:03:10;2.42;;;1.13;;
10667;SDS011;5382;42.136;24.796;2023-03-01T13:05:51;1.20;;;1.10;;
10667;SDS011;5382;42.136;24.796;2023-03-01T13:08:31;2.28;;;1.40;;
10667;SDS011;5382;42.136;24.796;2023-03-01T13:11:10;1.33;;;1.23;;
10667;SDS011;5382;42.136;24.796;2023-03-01T13:13:43;3.80;;;3.45;;
10667;SDS011;5382;42.136;24.796;2023-03-01T13:16:20;1.88;;;1.70;;
10667;SDS011;5382;42.136;24.796;2023-03-01T13:19:12;2.20;;;1.55;;
10667;SDS011;5382;42.136;24.796;2023-03-01T13:21:41;4.03;;;1.30;;
10667;SDS011;5382;42.136;24.796;2023-03-01T13:24:26;3.05;;;1.48;;
10667;SDS011;5382;42.136;24.796;2023-03-01T13:29:55;1.20;;;1.10;;
10667;SDS011;5382;42.136;24.796;2023-03-01T13:32:25;3.95;;;1.30;;
10667;SDS011;5382;42.136;24.796;2023-03-01T13:34:57;1.50;;;1.40;;
10667;SDS011;5382;42.136;24.796;2023-03-01T13:37:29;1.45;;;1.35;;
10667;SDS011;5382;42.136;24.796;2023-03-01T13:43:31;1.90;;;1.80;;
10667;SDS011;5382;42.136;24.796;2023-03-01T13:45:59;1.33;;;1.23;;
10667;SDS011;5382;42.136;24.796;2023-03-01T13:48:29;1.40;;;1.25;;
10667;SDS011;5382;42.136;24.796;2023-03-01T13:50:58;2.00;;;1.77;;
10667;SDS011;5382;42.136;24.796;2023-03-01T13:53:29;2.30;;;1.70;;
10667;SDS011;5382;42.136;24.796;2023-03-01T13:55:58;5.97;;;1.67;;
10667;SDS011;5382;42.136;24.796;2023-03-01T13:58:28;1.70;;;1.60;;
10667;SDS011;5382;42.136;24.796;2023-03-01T14:00:59;1.80;;;1.48;;
10667;SDS011;5382;42.136;24.796;2023-03-01T14:03:27;2.83;;;1.92;;
10667;SDS011;5382;42.136;24.796;2023-03-01T14:06:00;1.50;;;1.40;;
10667;SDS011;5382;42.136;24.796;2023-03-01T14:08:31;2.10;;;1.90;;
10667;SDS011;5382;42.136;24.796;2023-03-01T14:14:06;2.75;;;2.42;;
10667;SDS011;5382;42.136;24.796;2023-03-01T14:16:49;2.63;;;2.00;;
10667;SDS011;5382;42.136;24.796;2023-03-01T14:19:27;2.45;;;2.10;;
10667;SDS011;5382;42.136;24.796;2023-03-01T14:21:58;4.28;;;1.80;;
10667;SDS011;5382;42.136;24.796;2023-03-01T14:24:28;2.25;;;1.88;;
10667;SDS011;5382;42.136;24.796;2023-03-01T14:26:57;2.10;;;1.90;;
10667;SDS011;5382;42.136;24.796;2023-03-01T14:29:27;4.35;;;1.98;;
10667;SDS011;5382;42.136;24.796;2023-03-01T14:32:08;1.70;;;1.60;;
10667;SDS011;5382;42.136;24.796;2023-03-01T14:34:36;2.30;;;2.08;;
10667;SDS011;5382;42.136;24.796;2023-03-01T14:37:10;3.03;;;1.90;;
10667;SDS011;5382;42.136;24.796;2023-03-01T14:39:37;3.53;;;2.47;;
10667;SDS011;5382;42.136;24.796;2023-03-01T14:42:04;2.58;;;2.30;;
10667;SDS011;5382;42.136;24.796;2023-03-01T14:44:32;4.88;;;2.47;;
10667;SDS011;5382;42.136;24.796;2023-03-01T14:47:22;2.10;;;1.77;;
10667;SDS011;5382;42.136;24.796;2023-03-01T14:49:54;2.28;;;2.00;;
10667;SDS011;5382;42.136;24.796;2023-03-01T14:52:27;6.80;;;2.42;;
10667;SDS011;5382;42.136;24.796;2023-03-01T14:55:01;2.25;;;1.88;;
10667;SDS011;5382;42.136;24.796;2023-03-01T14:57:30;3.88;;;2.63;;
10667;SDS011;5382;42.136;24.796;2023-03-01T14:59:59;2.10;;;1.90;;
10667;SDS011;5382;42.136;24.796;2023-03-01T15:02:30;4.25;;;1.98;;
10667;SDS011;5382;42.136;24.796;2023-03-01T15:04:58;4.82;;;2.58;;
10667;SDS011;5382;42.136;24.796;2023-03-01T15:07:29;2.70;;;2.20;;
10667;SDS011;5382;42.136;24.796;2023-03-01T15:09:58;5.22;;;2.00;;
10667;SDS011;5382;42.136;24.796;2023-03-01T15:12:36;1.90;;;1.80;;
10667;SDS011;5382;42.136;24.796;2023-03-01T15:15:22;6.63;;;2.08;;
10667;SDS011;5382;42.136;24.796;2023-03-01T15:18:01;2.33;;;2.10;;
10667;SDS011;5382;42.136;24.796;2023-03-01T15:20:31;2.25;;;2.05;;
10667;SDS011;5382;42.136;24.796;2023-03-01T15:23:02;2.80;;;1.92;;
10667;SDS011;5382;42.136;24.796;2023-03-01T15:25:30;2.25;;;1.90;;
10667;SDS011;5382;42.136;24.796;2023-03-01T15:28:00;3.17;;;2.15;;
10667;SDS011;5382;42.136;24.796;2023-03-01T15:30:30;2.47;;;2.10;;